sensor_id;sensor_type;location;lat;lon;timestamp;temperature;humidity
9399;DHT22;4739;49.334;8.792;2023-02-28T00:02:20;1.30;99.90
9399;DHT22;4739;49.334;8.792;2023-02-28T00:04:45;1.30;99.90
9399;DHT22;4739;49.334;8.792;2023-02-28T00:07:18;1.30;99.90
9399;DHT22;4739;49.334;8.792;2023-02-28T00:09:44;1.30;99.90
9399;DHT22;4739;49.334;8.792;2023-02-28T00:12:09;1.30;99.90
9399;DHT22;4739;49.334;8.792;2023-02-28T00:14:40;1.20;99.90
9399;DHT22;4739;49.334;8.792;2023-02-28T00:17:05;1.20;99.90
9399;DHT22;4739;49.334;8.792;2023-02-28T00:19:31;1.20;99.90
9399;DHT22;4739;49.334;8.792;2023-02-28T00:21:57;1.20;99.90
9399;DHT22;4739;49.334;8.792;2023-02-28T00:24:22;1.20;99.90
9399;DHT22;4739;49.334;8.792;2023-02-28T00:26:48;1.30;99.90
9399;DHT22;4739;49.334;8.792;2023-02-28T00:29:13;1.20;99.90
9399;DHT22;4739;49.334;8.792;2023-02-28T00:31:39;1.10;99.90
9399;DHT22;4739;49.334;8.792;2023-02-28T00:34:04;1.10;99.90
9399;DHT22;4739;49.334;8.792;2023-02-28T00:36:30;1.10;99.90
9399;DHT22;4739;49.334;8.792;2023-02-28T00:38:55;1.10;99.90
9399;DHT22;4739;49.334;8.792;2023-02-28T00:41:21;1.20;99.90
9399;DHT22;4739;49.334;8.792;2023-02-28T00:43:46;1.10;99.90
9399;DHT22;4739;49.334;8.792;2023-02-28T00:46:12;1.10;99.90
9399;DHT22;4739;49.334;8.792;2023-02-28T00:48:38;1.00;99.90
9399;DHT22;4739;49.334;8.792;2023-02-28T00:51:03;1.00;99.90
9399;DHT22;4739;49.334;8.792;2023-02-28T00:53:29;1.00;99.90
9399;DHT22;4739;49.334;8.792;2023-02-28T00:55:55;1.00;99.90
9399;DHT22;4739;49.334;8.792;2023-02-28T00:58:21;1.00;99.90
9399;DHT22;4739;49.334;8.792;2023-02-28T01:00:46;1.00;99.90
9399;DHT22;4739;49.334;8.792;2023-02-28T01:03:15;1.00;99.90
9399;DHT22;4739;49.334;8.792;2023-02-28T01:05:41;0.90;99.90
9399;DHT22;4739;49.334;8.792;2023-02-28T01:08:07;1.00;99.90
9399;DHT22;4739;49.334;8.792;2023-02-28T01:10:32;0.90;99.90
9399;DHT22;4739;49.334;8.792;2023-02-28T01:12:58;0.90;99.90
9399;DHT22;4739;49.334;8.792;2023-02-28T01:15:23;0.90;99.90
9399;DHT22;4739;49.334;8.792;2023-02-28T01:17:49;0.80;99.90
9399;DHT22;4739;49.334;8.792;2023-02-28T01:20:15;0.80;99.90
9399;DHT22;4739;49.334;8.792;2023-02-28T01:22:40;0.80;99.90
9399;DHT22;4739;49.334;8.792;2023-02-28T01:25:06;0.90;99.90
9399;DHT22;4739;49.334;8.792;2023-02-28T01:27:33;0.80;99.90
9399;DHT22;4739;49.334;8.792;2023-02-28T01:29:59;0.80;99.90
9399;DHT22;4739;49.334;8.792;2023-02-28T01:32:24;0.80;99.90
9399;DHT22;4739;49.334;8.792;2023-02-28T01:34:50;0.80;99.90
9399;DHT22;4739;49.334;8.792;2023-02-28T01:37:15;0.80;99.90
9399;DHT22;4739;49.334;8.792;2023-02-28T01:39:41;0.70;99.90
9399;DHT22;4739;49.334;8.792;2023-02-28T01:42:09;0.70;99.90
9399;DHT22;4739;49.334;8.792;2023-02-28T01:47:29;0.80;99.90
9399;DHT22;4739;49.334;8.792;2023-02-28T01:49:55;0.80;99.90
9399;DHT22;4739;49.334;8.792;2023-02-28T01:52:22;0.70;99.90
9399;DHT22;4739;49.334;8.792;2023-02-28T01:54:52;0.80;99.90
9399;DHT22;4739;49.334;8.792;2023-02-28T01:57:22;0.80;99.90
9399;DHT22;4739;49.334;8.792;2023-02-28T01:59:57;0.70;99.90
9399;DHT22;4739;49.334;8.792;2023-02-28T02:02:25;0.70;99.90
9399;DHT22;4739;49.334;8.792;2023-02-28T02:04:55;0.70;99.90
9399;DHT22;4739;49.334;8.792;2023-02-28T02:07:22;0.70;99.90
9399;DHT22;4739;49.334;8.792;2023-02-28T02:09:48;0.80;99.90
9399;DHT22;4739;49.334;8.792;2023-02-28T02:12:41;0.70;99.90
9399;DHT22;4739;49.334;8.792;2023-02-28T02:15:16;0.60;99.90
9399;DHT22;4739;49.334;8.792;2023-02-28T02:17:45;0.60;99.90
9399;DHT22;4739;49.334;8.792;2023-02-28T02:25:39;0.50;99.90
9399;DHT22;4739;49.334;8.792;2023-02-28T02:31:20;0.60;99.90
9399;DHT22;4739;49.334;8.792;2023-02-28T02:34:09;0.60;99.90
9399;DHT22;4739;49.334;8.792;2023-02-28T02:36:54;0.60;99.90
9399;DHT22;4739;49.334;8.792;2023-02-28T02:39:31;0.60;99.90
9399;DHT22;4739;49.334;8.792;2023-02-28T02:42:02;0.60;99.90
9399;DHT22;4739;49.334;8.792;2023-02-28T02:44:37;0.60;99.90
9399;DHT22;4739;49.334;8.792;2023-02-28T02:47:13;0.60;99.90
9399;DHT22;4739;49.334;8.792;2023-02-28T02:49:43;0.60;99.90
9399;DHT22;4739;49.334;8.792;2023-02-28T02:52:15;0.60;99.90
9399;DHT22;4739;49.334;8.792;2023-02-28T02:54:44;0.60;99.90
9399;DHT22;4739;49.334;8.792;2023-02-28T02:57:20;0.50;99.90
9399;DHT22;4739;49.334;8.792;2023-02-28T02:59:47;0.50;99.90
9399;DHT22;4739;49.334;8.792;2023-02-28T03:02:15;0.50;99.90
9399;DHT22;4739;49.334;8.792;2023-02-28T03:05:03;0.50;99.90
9399;DHT22;4739;49.334;8.792;2023-02-28T03:07:30;0.50;99.90
9399;DHT22;4739;49.334;8.792;2023-02-28T03:09:56;0.50;99.90
9399;DHT22;4739;49.334;8.792;2023-02-28T03:12:47;0.50;99.90
9399;DHT22;4739;49.334;8.792;2023-02-28T03:15:22;0.50;99.90
9399;DHT22;4739;49.334;8.792;2023-02-28T03:20:38;0.40;99.90
9399;DHT22;4739;49.334;8.792;2023-02-28T03:23:16;0.40;99.90
9399;DHT22;4739;49.334;8.792;2023-02-28T03:25:56;0.40;99.90
9399;DHT22;4739;49.334;8.792;2023-02-28T03:31:13;0.30;99.90
9399;DHT22;4739;49.334;8.792;2023-02-28T03:33:46;0.30;99.90
9399;DHT22;4739;49.334;8.792;2023-02-28T03:36:23;0.30;99.90
9399;DHT22;4739;49.334;8.792;2023-02-28T03:38:59;0.30;99.90
9399;DHT22;4739;49.334;8.792;2023-02-28T03:44:11;0.30;99.90
9399;DHT22;4739;49.334;8.792;2023-02-28T03:46:44;0.20;99.90
9399;DHT22;4739;49.334;8.792;2023-02-28T03:49:27;0.20;99.90
9399;DHT22;4739;49.334;8.792;2023-02-28T03:51:58;0.30;99.90
9399;DHT22;4739;49.334;8.792;2023-02-28T03:54:29;0.20;99.90
9399;DHT22;4739;49.334;8.792;2023-02-28T03:57:02;0.20;99.90
9399;DHT22;4739;49.334;8.792;2023-02-28T03:59:34;0.10;99.90
9399;DHT22;4739;49.334;8.792;2023-02-28T04:02:02;0.20;99.90
9399;DHT22;4739;49.334;8.792;2023-02-28T04:04:28;0.20;99.90
9399;DHT22;4739;49.334;8.792;2023-02-28T04:07:03;0.30;99.90
9399;DHT22;4739;49.334;8.792;2023-02-28T04:09:29;0.20;99.90
9399;DHT22;4739;49.334;8.792;2023-02-28T04:11:55;0.20;99.90
9399;DHT22;4739;49.334;8.792;2023-02-28T04:14:23;0.20;99.90
9399;DHT22;4739;49.334;8.792;2023-02-28T04:16:49;0.20;99.90
9399;DHT22;4739;49.334;8.792;2023-02-28T04:19:16;0.20;99.90
9399;DHT22;4739;49.334;8.792;2023-02-28T04:21:44;0.20;99.90
9399;DHT22;4739;49.334;8.792;2023-02-28T04:24:18;0.20;99.90
9399;DHT22;4739;49.334;8.792;2023-02-28T04:26:47;0.30;99.90
9399;DHT22;4739;49.334;8.792;2023-02-28T04:29:18;0.20;99.90
9399;DHT22;4739;49.334;8.792;2023-02-28T04:31:44;0.20;99.90
9399;DHT22;4739;49.334;8.792;2023-02-28T04:34:09;0.20;99.90
9399;DHT22;4739;49.334;8.792;2023-02-28T04:36:35;0.20;99.90
9399;DHT22;4739;49.334;8.792;2023-02-28T04:39:00;0.30;99.90
9399;DHT22;4739;49.334;8.792;2023-02-28T04:41:26;0.20;99.90
9399;DHT22;4739;49.334;8.792;2023-02-28T04:43:52;0.30;99.90
9399;DHT22;4739;49.334;8.792;2023-02-28T04:46:18;0.30;99.90
9399;DHT22;4739;49.334;8.792;2023-02-28T04:48:44;0.30;99.90
9399;DHT22;4739;49.334;8.792;2023-02-28T04:51:12;0.30;99.90
9399;DHT22;4739;49.334;8.792;2023-02-28T04:53:39;0.30;99.90
9399;DHT22;4739;49.334;8.792;2023-02-28T04:56:06;0.40;99.90
9399;DHT22;4739;49.334;8.792;2023-02-28T04:58:33;0.40;99.90
9399;DHT22;4739;49.334;8.792;2023-02-28T05:01:05;0.40;99.90
9399;DHT22;4739;49.334;8.792;2023-02-28T05:03:38;0.50;99.90
9399;DHT22;4739;49.334;8.792;2023-02-28T05:06:06;0.60;99.90
9399;DHT22;4739;49.334;8.792;2023-02-28T05:08:32;0.50;99.90
9399;DHT22;4739;49.334;8.792;2023-02-28T05:10:57;0.50;99.90
9399;DHT22;4739;49.334;8.792;2023-02-28T05:13:23;0.60;99.90
9399;DHT22;4739;49.334;8.792;2023-02-28T05:15:49;0.60;99.90
9399;DHT22;4739;49.334;8.792;2023-02-28T05:18:14;0.60;99.90
9399;DHT22;4739;49.334;8.792;2023-02-28T05:20:40;0.70;99.90
9399;DHT22;4739;49.334;8.792;2023-02-28T05:23:05;0.70;99.90
9399;DHT22;4739;49.334;8.792;2023-02-28T05:25:31;0.80;99.90
9399;DHT22;4739;49.334;8.792;2023-02-28T05:27:57;0.70;99.90
9399;DHT22;4739;49.334;8.792;2023-02-28T05:30:22;0.70;99.90
9399;DHT22;4739;49.334;8.792;2023-02-28T05:32:51;0.70;99.90
9399;DHT22;4739;49.334;8.792;2023-02-28T05:35:17;0.70;99.90
9399;DHT22;4739;49.334;8.792;2023-02-28T05:37:42;0.60;99.90
9399;DHT22;4739;49.334;8.792;2023-02-28T05:40:09;0.60;99.90
9399;DHT22;4739;49.334;8.792;2023-02-28T05:42:38;0.70;99.90
9399;DHT22;4739;49.334;8.792;2023-02-28T05:45:04;0.80;99.90
9399;DHT22;4739;49.334;8.792;2023-02-28T05:47:30;0.80;99.90
9399;DHT22;4739;49.334;8.792;2023-02-28T05:49:56;0.80;99.90
9399;DHT22;4739;49.334;8.792;2023-02-28T05:52:22;0.80;99.90
9399;DHT22;4739;49.334;8.792;2023-02-28T05:54:47;0.70;99.90
9399;DHT22;4739;49.334;8.792;2023-02-28T05:57:13;0.70;99.90
9399;DHT22;4739;49.334;8.792;2023-02-28T05:59:39;0.70;99.90
9399;DHT22;4739;49.334;8.792;2023-02-28T06:02:06;0.70;99.90
9399;DHT22;4739;49.334;8.792;2023-02-28T06:04:31;0.70;99.90
9399;DHT22;4739;49.334;8.792;2023-02-28T06:06:57;0.60;99.90
9399;DHT22;4739;49.334;8.792;2023-02-28T06:09:23;0.70;99.90
9399;DHT22;4739;49.334;8.792;2023-02-28T06:11:48;0.70;99.90
9399;DHT22;4739;49.334;8.792;2023-02-28T06:14:16;0.80;99.90
9399;DHT22;4739;49.334;8.792;2023-02-28T06:16:42;0.80;99.90
9399;DHT22;4739;49.334;8.792;2023-02-28T06:19:09;0.80;99.90
9399;DHT22;4739;49.334;8.792;2023-02-28T06:21:35;0.70;99.90
9399;DHT22;4739;49.334;8.792;2023-02-28T06:24:02;0.60;99.90
9399;DHT22;4739;49.334;8.792;2023-02-28T06:26:28;0.60;99.90
9399;DHT22;4739;49.334;8.792;2023-02-28T06:28:54;0.60;99.90
9399;DHT22;4739;49.334;8.792;2023-02-28T06:31:20;0.50;99.90
9399;DHT22;4739;49.334;8.792;2023-02-28T06:33:47;0.70;99.90
9399;DHT22;4739;49.334;8.792;2023-02-28T06:36:14;0.70;99.90
9399;DHT22;4739;49.334;8.792;2023-02-28T06:38:40;0.70;99.90
9399;DHT22;4739;49.334;8.792;2023-02-28T06:41:07;0.70;99.90
9399;DHT22;4739;49.334;8.792;2023-02-28T06:43:36;0.80;99.90
9399;DHT22;4739;49.334;8.792;2023-02-28T06:46:04;0.80;99.90
9399;DHT22;4739;49.334;8.792;2023-02-28T06:48:30;1.00;99.90
9399;DHT22;4739;49.334;8.792;2023-02-28T06:51:07;0.80;99.90
9399;DHT22;4739;49.334;8.792;2023-02-28T06:53:34;0.80;99.90
9399;DHT22;4739;49.334;8.792;2023-02-28T06:55:59;0.90;99.90
9399;DHT22;4739;49.334;8.792;2023-02-28T06:58:25;0.80;99.90
9399;DHT22;4739;49.334;8.792;2023-02-28T07:00:52;0.80;99.90
9399;DHT22;4739;49.334;8.792;2023-02-28T07:03:18;0.90;99.90
9399;DHT22;4739;49.334;8.792;2023-02-28T07:05:44;1.10;99.90
9399;DHT22;4739;49.334;8.792;2023-02-28T07:08:10;1.10;99.90
9399;DHT22;4739;49.334;8.792;2023-02-28T07:10:38;1.20;99.90
9399;DHT22;4739;49.334;8.792;2023-02-28T07:13:05;1.30;99.90
9399;DHT22;4739;49.334;8.792;2023-02-28T07:15:31;1.40;99.90
9399;DHT22;4739;49.334;8.792;2023-02-28T07:17:56;1.30;99.90
9399;DHT22;4739;49.334;8.792;2023-02-28T07:20:23;1.30;99.90
9399;DHT22;4739;49.334;8.792;2023-02-28T07:22:49;1.30;99.90
9399;DHT22;4739;49.334;8.792;2023-02-28T07:25:22;1.30;99.90
9399;DHT22;4739;49.334;8.792;2023-02-28T07:27:49;1.50;99.90
9399;DHT22;4739;49.334;8.792;2023-02-28T07:30:14;1.60;99.90
9399;DHT22;4739;49.334;8.792;2023-02-28T07:32:40;1.60;99.90
9399;DHT22;4739;49.334;8.792;2023-02-28T07:35:06;1.50;99.90
9399;DHT22;4739;49.334;8.792;2023-02-28T07:37:31;1.60;99.90
9399;DHT22;4739;49.334;8.792;2023-02-28T07:40:06;1.50;99.90
9399;DHT22;4739;49.334;8.792;2023-02-28T07:42:34;1.60;99.90
9399;DHT22;4739;49.334;8.792;2023-02-28T07:45:00;1.70;99.90
9399;DHT22;4739;49.334;8.792;2023-02-28T07:47:26;1.70;99.90
9399;DHT22;4739;49.334;8.792;2023-02-28T07:49:51;1.70;99.90
9399;DHT22;4739;49.334;8.792;2023-02-28T07:52:17;1.70;99.90
9399;DHT22;4739;49.334;8.792;2023-02-28T07:54:42;1.70;99.90
9399;DHT22;4739;49.334;8.792;2023-02-28T07:57:08;1.80;99.90
9399;DHT22;4739;49.334;8.792;2023-02-28T07:59:34;1.80;99.90
9399;DHT22;4739;49.334;8.792;2023-02-28T08:01:59;1.80;99.90
9399;DHT22;4739;49.334;8.792;2023-02-28T08:04:25;1.80;99.90
9399;DHT22;4739;49.334;8.792;2023-02-28T08:06:51;1.70;99.90
9399;DHT22;4739;49.334;8.792;2023-02-28T08:09:21;1.60;99.90
9399;DHT22;4739;49.334;8.792;2023-02-28T08:11:47;1.70;99.90
9399;DHT22;4739;49.334;8.792;2023-02-28T08:14:12;1.80;99.90
9399;DHT22;4739;49.334;8.792;2023-02-28T08:16:39;1.90;99.90
9399;DHT22;4739;49.334;8.792;2023-02-28T08:19:04;1.90;99.90
9399;DHT22;4739;49.334;8.792;2023-02-28T08:21:30;2.00;99.90
9399;DHT22;4739;49.334;8.792;2023-02-28T08:23:55;2.20;99.90
9399;DHT22;4739;49.334;8.792;2023-02-28T08:26:22;2.40;99.90
9399;DHT22;4739;49.334;8.792;2023-02-28T08:28:48;2.40;99.90
9399;DHT22;4739;49.334;8.792;2023-02-28T08:31:16;2.50;99.90
9399;DHT22;4739;49.334;8.792;2023-02-28T08:33:42;2.40;99.90
9399;DHT22;4739;49.334;8.792;2023-02-28T08:36:11;2.30;99.90
9399;DHT22;4739;49.334;8.792;2023-02-28T08:38:38;2.30;99.90
9399;DHT22;4739;49.334;8.792;2023-02-28T08:41:07;2.50;99.90
9399;DHT22;4739;49.334;8.792;2023-02-28T08:43:34;2.60;99.90
9399;DHT22;4739;49.334;8.792;2023-02-28T08:46:03;2.60;99.90
9399;DHT22;4739;49.334;8.792;2023-02-28T08:48:31;2.70;99.90
9399;DHT22;4739;49.334;8.792;2023-02-28T08:51:01;2.80;99.90
9399;DHT22;4739;49.334;8.792;2023-02-28T08:53:28;2.90;99.90
9399;DHT22;4739;49.334;8.792;2023-02-28T08:56:02;2.90;99.90
9399;DHT22;4739;49.334;8.792;2023-02-28T08:58:28;3.00;99.90
9399;DHT22;4739;49.334;8.792;2023-02-28T09:00:56;3.10;99.90
9399;DHT22;4739;49.334;8.792;2023-02-28T09:03:22;3.40;99.90
9399;DHT22;4739;49.334;8.792;2023-02-28T09:05:55;3.40;99.90
9399;DHT22;4739;49.334;8.792;2023-02-28T09:08:22;3.50;99.90
9399;DHT22;4739;49.334;8.792;2023-02-28T09:10:48;3.30;99.90
9399;DHT22;4739;49.334;8.792;2023-02-28T09:13:14;3.30;99.90
9399;DHT22;4739;49.334;8.792;2023-02-28T09:15:40;3.40;99.90
9399;DHT22;4739;49.334;8.792;2023-02-28T09:18:07;3.50;99.90
9399;DHT22;4739;49.334;8.792;2023-02-28T09:20:32;3.70;99.90
9399;DHT22;4739;49.334;8.792;2023-02-28T09:22:58;3.60;99.90
9399;DHT22;4739;49.334;8.792;2023-02-28T09:25:23;3.70;99.90
9399;DHT22;4739;49.334;8.792;2023-02-28T09:27:50;3.80;99.90
9399;DHT22;4739;49.334;8.792;2023-02-28T09:30:16;3.90;99.90
9399;DHT22;4739;49.334;8.792;2023-02-28T09:32:42;3.70;99.90
9399;DHT22;4739;49.334;8.792;2023-02-28T09:35:08;3.70;99.90
9399;DHT22;4739;49.334;8.792;2023-02-28T09:37:41;3.70;99.90
9399;DHT22;4739;49.334;8.792;2023-02-28T09:40:09;3.90;99.90
9399;DHT22;4739;49.334;8.792;2023-02-28T09:42:35;3.60;99.90
9399;DHT22;4739;49.334;8.792;2023-02-28T09:45:02;3.90;99.90
9399;DHT22;4739;49.334;8.792;2023-02-28T09:47:36;4.10;99.90
9399;DHT22;4739;49.334;8.792;2023-02-28T09:52:53;4.30;99.90
9399;DHT22;4739;49.334;8.792;2023-02-28T09:57:48;4.40;99.90
9399;DHT22;4739;49.334;8.792;2023-02-28T10:00:22;4.50;99.90
9399;DHT22;4739;49.334;8.792;2023-02-28T10:05:50;4.40;99.90
9399;DHT22;4739;49.334;8.792;2023-02-28T10:08:26;4.30;99.90
9399;DHT22;4739;49.334;8.792;2023-02-28T10:11:06;4.50;99.90
9399;DHT22;4739;49.334;8.792;2023-02-28T10:16:08;4.60;99.90
9399;DHT22;4739;49.334;8.792;2023-02-28T10:18:46;4.70;99.90
9399;DHT22;4739;49.334;8.792;2023-02-28T10:26:48;4.90;99.90
9399;DHT22;4739;49.334;8.792;2023-02-28T10:29:14;5.00;99.90
9399;DHT22;4739;49.334;8.792;2023-02-28T10:31:41;5.10;99.90
9399;DHT22;4739;49.334;8.792;2023-02-28T10:34:10;5.20;99.90
9399;DHT22;4739;49.334;8.792;2023-02-28T10:36:37;5.00;99.90
9399;DHT22;4739;49.334;8.792;2023-02-28T10:39:36;5.30;99.90
9399;DHT22;4739;49.334;8.792;2023-02-28T10:42:03;5.30;99.90
9399;DHT22;4739;49.334;8.792;2023-02-28T10:44:29;5.10;99.90
9399;DHT22;4739;49.334;8.792;2023-02-28T10:46:55;5.10;99.90
9399;DHT22;4739;49.334;8.792;2023-02-28T10:49:26;5.20;99.90
9399;DHT22;4739;49.334;8.792;2023-02-28T10:54:22;5.50;99.90
9399;DHT22;4739;49.334;8.792;2023-02-28T10:57:23;5.60;99.90
9399;DHT22;4739;49.334;8.792;2023-02-28T11:00:31;5.40;99.90
9399;DHT22;4739;49.334;8.792;2023-02-28T11:02:52;5.50;99.90
9399;DHT22;4739;49.334;8.792;2023-02-28T11:08:03;5.50;99.90
9399;DHT22;4739;49.334;8.792;2023-02-28T11:10:31;5.60;99.90
9399;DHT22;4739;49.334;8.792;2023-02-28T11:13:00;5.70;99.90
9399;DHT22;4739;49.334;8.792;2023-02-28T11:15:32;5.90;99.90
9399;DHT22;4739;49.334;8.792;2023-02-28T11:18:30;5.70;99.90
9399;DHT22;4739;49.334;8.792;2023-02-28T11:20:59;5.50;99.90
9399;DHT22;4739;49.334;8.792;2023-02-28T11:23:32;5.30;99.90
9399;DHT22;4739;49.334;8.792;2023-02-28T11:26:02;5.30;99.90
9399;DHT22;4739;49.334;8.792;2023-02-28T11:28:39;5.30;99.90
9399;DHT22;4739;49.334;8.792;2023-02-28T11:33:51;5.20;99.90
9399;DHT22;4739;49.334;8.792;2023-02-28T11:38:45;5.10;99.90
9399;DHT22;4739;49.334;8.792;2023-02-28T11:41:19;5.30;99.90
9399;DHT22;4739;49.334;8.792;2023-02-28T11:46:52;6.00;99.90
9399;DHT22;4739;49.334;8.792;2023-02-28T11:52:24;6.80;99.90
9399;DHT22;4739;49.334;8.792;2023-02-28T11:57:50;6.90;99.90
9399;DHT22;4739;49.334;8.792;2023-02-28T12:03:39;7.00;99.90
9399;DHT22;4739;49.334;8.792;2023-02-28T12:14:55;7.40;99.90
9399;DHT22;4739;49.334;8.792;2023-02-28T12:23:35;7.00;99.90
9399;DHT22;4739;49.334;8.792;2023-02-28T12:26:43;7.20;99.90
9399;DHT22;4739;49.334;8.792;2023-02-28T12:29:14;7.40;99.90
9399;DHT22;4739;49.334;8.792;2023-02-28T12:31:48;7.20;99.90
9399;DHT22;4739;49.334;8.792;2023-02-28T12:34:19;7.10;99.90
9399;DHT22;4739;49.334;8.792;2023-02-28T12:36:48;6.90;99.90
9399;DHT22;4739;49.334;8.792;2023-02-28T12:39:26;6.50;99.90
9399;DHT22;4739;49.334;8.792;2023-02-28T12:42:05;6.40;99.90
9399;DHT22;4739;49.334;8.792;2023-02-28T12:44:43;6.50;99.90
9399;DHT22;4739;49.334;8.792;2023-02-28T12:47:14;6.80;99.90
9399;DHT22;4739;49.334;8.792;2023-02-28T12:50:06;7.10;99.90
9399;DHT22;4739;49.334;8.792;2023-02-28T12:55:55;7.30;99.90
9399;DHT22;4739;49.334;8.792;2023-02-28T12:58:31;7.10;99.90
9399;DHT22;4739;49.334;8.792;2023-02-28T13:11:41;8.10;99.90
9399;DHT22;4739;49.334;8.792;2023-02-28T13:17:09;8.60;99.90
9399;DHT22;4739;49.334;8.792;2023-02-28T13:19:55;8.20;99.90
9399;DHT22;4739;49.334;8.792;2023-02-28T13:22:45;8.10;99.90
9399;DHT22;4739;49.334;8.792;2023-02-28T13:27:45;8.80;99.90
9399;DHT22;4739;49.334;8.792;2023-02-28T13:33:36;8.90;99.90
9399;DHT22;4739;49.334;8.792;2023-02-28T13:38:48;8.70;99.90
9399;DHT22;4739;49.334;8.792;2023-02-28T13:44:21;8.50;99.90
9399;DHT22;4739;49.334;8.792;2023-02-28T13:54:50;7.10;99.90
9399;DHT22;4739;49.334;8.792;2023-02-28T14:05:36;7.20;99.90
9399;DHT22;4739;49.334;8.792;2023-02-28T14:08:18;7.20;99.90
9399;DHT22;4739;49.334;8.792;2023-02-28T14:10:49;7.10;99.90
9399;DHT22;4739;49.334;8.792;2023-02-28T14:13:42;7.20;99.90
9399;DHT22;4739;49.334;8.792;2023-02-28T14:16:11;7.10;99.90
9399;DHT22;4739;49.334;8.792;2023-02-28T14:18:42;7.30;99.90
9399;DHT22;4739;49.334;8.792;2023-02-28T14:21:25;7.50;99.90
9399;DHT22;4739;49.334;8.792;2023-02-28T14:27:03;8.00;99.90
9399;DHT22;4739;49.334;8.792;2023-02-28T14:37:56;7.70;99.90
9399;DHT22;4739;49.334;8.792;2023-02-28T14:40:40;7.70;99.90
9399;DHT22;4739;49.334;8.792;2023-02-28T14:43:20;7.80;99.90
9399;DHT22;4739;49.334;8.792;2023-02-28T14:45:50;7.70;99.90
9399;DHT22;4739;49.334;8.792;2023-02-28T14:48:17;7.60;99.90
9399;DHT22;4739;49.334;8.792;2023-02-28T14:50:49;7.40;99.90
9399;DHT22;4739;49.334;8.792;2023-02-28T14:53:20;7.40;99.90
9399;DHT22;4739;49.334;8.792;2023-02-28T14:55:48;7.40;99.90
9399;DHT22;4739;49.334;8.792;2023-02-28T14:58:26;7.30;99.90
9399;DHT22;4739;49.334;8.792;2023-02-28T15:00:54;7.00;99.90
9399;DHT22;4739;49.334;8.792;2023-02-28T15:05:58;7.20;99.90
9399;DHT22;4739;49.334;8.792;2023-02-28T15:08:25;6.90;99.90
9399;DHT22;4739;49.334;8.792;2023-02-28T15:10:59;7.10;99.90
9399;DHT22;4739;49.334;8.792;2023-02-28T15:13:39;7.20;99.90
9399;DHT22;4739;49.334;8.792;2023-02-28T15:16:10;7.20;99.90
9399;DHT22;4739;49.334;8.792;2023-02-28T15:18:48;7.30;99.90
9399;DHT22;4739;49.334;8.792;2023-02-28T15:21:23;7.30;99.90
9399;DHT22;4739;49.334;8.792;2023-02-28T15:24:00;7.20;99.90
9399;DHT22;4739;49.334;8.792;2023-02-28T15:26:42;7.10;99.90
9399;DHT22;4739;49.334;8.792;2023-02-28T15:29:14;6.90;99.90
9399;DHT22;4739;49.334;8.792;2023-02-28T15:31:47;6.70;99.90
9399;DHT22;4739;49.334;8.792;2023-02-28T15:34:19;6.60;99.90
9399;DHT22;4739;49.334;8.792;2023-02-28T15:36:47;6.60;99.90
9399;DHT22;4739;49.334;8.792;2023-02-28T15:39:42;6.50;99.90
9399;DHT22;4739;49.334;8.792;2023-02-28T15:42:19;6.30;99.90
9399;DHT22;4739;49.334;8.792;2023-02-28T15:44:45;6.20;99.90
9399;DHT22;4739;49.334;8.792;2023-02-28T15:47:22;6.20;99.90
9399;DHT22;4739;49.334;8.792;2023-02-28T15:50:00;6.20;99.90
9399;DHT22;4739;49.334;8.792;2023-02-28T15:52:43;6.10;99.90
9399;DHT22;4739;49.334;8.792;2023-02-28T15:57:39;5.80;99.90
9399;DHT22;4739;49.334;8.792;2023-02-28T16:00:11;5.90;99.90
9399;DHT22;4739;49.334;8.792;2023-02-28T16:02:38;5.80;99.90
9399;DHT22;4739;49.334;8.792;2023-02-28T16:07:40;5.70;99.90
9399;DHT22;4739;49.334;8.792;2023-02-28T16:10:07;5.60;99.90
9399;DHT22;4739;49.334;8.792;2023-02-28T16:12:35;5.60;99.90
9399;DHT22;4739;49.334;8.792;2023-02-28T16:15:07;5.60;99.90
9399;DHT22;4739;49.334;8.792;2023-02-28T16:17:35;5.60;99.90
9399;DHT22;4739;49.334;8.792;2023-02-28T16:20:16;5.50;99.90
9399;DHT22;4739;49.334;8.792;2023-02-28T16:22:42;5.50;99.90
9399;DHT22;4739;49.334;8.792;2023-02-28T16:25:15;5.50;99.90
9399;DHT22;4739;49.334;8.792;2023-02-28T16:27:42;5.40;99.90
9399;DHT22;4739;49.334;8.792;2023-02-28T16:30:21;5.40;99.90
9399;DHT22;4739;49.334;8.792;2023-02-28T16:32:47;5.30;99.90
9399;DHT22;4739;49.334;8.792;2023-02-28T16:35:14;5.10;99.90
9399;DHT22;4739;49.334;8.792;2023-02-28T16:37:40;5.20;99.90
9399;DHT22;4739;49.334;8.792;2023-02-28T16:40:17;5.20;99.90
9399;DHT22;4739;49.334;8.792;2023-02-28T16:42:45;5.20;99.90
9399;DHT22;4739;49.334;8.792;2023-02-28T16:45:22;5.20;99.90
9399;DHT22;4739;49.334;8.792;2023-02-28T16:47:48;5.10;99.90
9399;DHT22;4739;49.334;8.792;2023-02-28T16:50:26;5.10;99.90
9399;DHT22;4739;49.334;8.792;2023-02-28T16:52:52;5.00;99.90
9399;DHT22;4739;49.334;8.792;2023-02-28T16:55:18;4.90;99.90
9399;DHT22;4739;49.334;8.792;2023-02-28T16:57:47;4.90;99.90
9399;DHT22;4739;49.334;8.792;2023-02-28T17:00:15;5.00;99.90
9399;DHT22;4739;49.334;8.792;2023-02-28T17:02:40;4.90;99.90
9399;DHT22;4739;49.334;8.792;2023-02-28T17:05:06;4.80;99.90
9399;DHT22;4739;49.334;8.792;2023-02-28T17:07:32;4.80;99.90
9399;DHT22;4739;49.334;8.792;2023-02-28T17:09:58;4.80;99.90
9399;DHT22;4739;49.334;8.792;2023-02-28T17:12:24;4.80;99.90
9399;DHT22;4739;49.334;8.792;2023-02-28T17:14:50;4.70;99.90
9399;DHT22;4739;49.334;8.792;2023-02-28T17:17:18;4.70;99.90
9399;DHT22;4739;49.334;8.792;2023-02-28T17:19:45;4.80;99.90
9399;DHT22;4739;49.334;8.792;2023-02-28T17:22:10;4.70;99.90
9399;DHT22;4739;49.334;8.792;2023-02-28T17:24:36;4.60;99.90
9399;DHT22;4739;49.334;8.792;2023-02-28T17:27:02;4.50;99.90
9399;DHT22;4739;49.334;8.792;2023-02-28T17:29:28;4.40;99.90
9399;DHT22;4739;49.334;8.792;2023-02-28T17:31:54;4.50;99.90
9399;DHT22;4739;49.334;8.792;2023-02-28T17:34:20;4.40;99.90
9399;DHT22;4739;49.334;8.792;2023-02-28T17:36:48;4.30;99.90
9399;DHT22;4739;49.334;8.792;2023-02-28T17:39:15;4.30;99.90
9399;DHT22;4739;49.334;8.792;2023-02-28T17:41:45;4.30;99.90
9399;DHT22;4739;49.334;8.792;2023-02-28T17:44:10;4.30;99.90
9399;DHT22;4739;49.334;8.792;2023-02-28T17:46:36;4.30;99.90
9399;DHT22;4739;49.334;8.792;2023-02-28T17:49:02;4.30;99.90
9399;DHT22;4739;49.334;8.792;2023-02-28T17:51:28;4.30;99.90
9399;DHT22;4739;49.334;8.792;2023-02-28T17:53:54;4.20;99.90
9399;DHT22;4739;49.334;8.792;2023-02-28T17:56:22;4.20;99.90
9399;DHT22;4739;49.334;8.792;2023-02-28T17:58:49;4.20;99.90
9399;DHT22;4739;49.334;8.792;2023-02-28T18:01:16;4.20;99.90
9399;DHT22;4739;49.334;8.792;2023-02-28T18:03:41;4.10;99.90
9399;DHT22;4739;49.334;8.792;2023-02-28T18:06:14;4.10;99.90
9399;DHT22;4739;49.334;8.792;2023-02-28T18:08:41;4.00;99.90
9399;DHT22;4739;49.334;8.792;2023-02-28T18:11:06;3.90;99.90
9399;DHT22;4739;49.334;8.792;2023-02-28T18:13:44;3.90;99.90
9399;DHT22;4739;49.334;8.792;2023-02-28T18:16:10;3.80;99.90
9399;DHT22;4739;49.334;8.792;2023-02-28T18:18:35;3.80;99.90
9399;DHT22;4739;49.334;8.792;2023-02-28T18:21:04;3.70;99.90
9399;DHT22;4739;49.334;8.792;2023-02-28T18:23:30;3.70;99.90
9399;DHT22;4739;49.334;8.792;2023-02-28T18:25:56;3.60;99.90
9399;DHT22;4739;49.334;8.792;2023-02-28T18:28:23;3.30;99.90
9399;DHT22;4739;49.334;8.792;2023-02-28T18:30:49;3.20;99.90
9399;DHT22;4739;49.334;8.792;2023-02-28T18:33:14;3.10;99.90
9399;DHT22;4739;49.334;8.792;2023-02-28T18:35:40;2.90;99.90
9399;DHT22;4739;49.334;8.792;2023-02-28T18:38:12;2.80;99.90
9399;DHT22;4739;49.334;8.792;2023-02-28T18:40:39;2.80;99.90
9399;DHT22;4739;49.334;8.792;2023-02-28T18:43:06;2.70;99.90
9399;DHT22;4739;49.334;8.792;2023-02-28T18:45:35;2.60;99.90
9399;DHT22;4739;49.334;8.792;2023-02-28T18:48:01;2.50;99.90
9399;DHT22;4739;49.334;8.792;2023-02-28T18:50:26;2.50;99.90